Anza Borrego Desert Research Center, California Weather observations

Data are for 10 minute period ending at time listed.
 Day   Time   Solar   Ave.   Ave.  Ave.  Vector  Max.   Baro.   Total    
  of    of     Rad.   Air    Rel.  Wind   Wind   Wind  Press.  Precip.   
Year   Day            Temp.  Hum.  Speed  Dir.   Gust                    
2015   (PST)  Kw/m2    F      %     mph   deg.    mph    mb.     in.     
-------------------------------------------------------------------------
  61   10:40   0.39   57.0    60    6.6    33     9.9   501.7    0.00 
  61   10:50   0.34   55.8    56   13.6   336    23.8   501.7    0.00 
  61   11:00   0.47   54.0    63    9.8   323    17.1   501.7    0.00 
  61   11:10   0.87   55.9    60    6.6   338    12.1   501.6    0.00 
  61   11:20   0.50   57.4    53    5.4   338    11.2   501.7    0.00 
  61   11:30   0.25   56.6    53    6.8   334     9.9   501.7    0.00 
  61   11:40   0.21   56.4    52    6.6   277    15.0   501.7    0.00 
  61   11:50   0.08   55.9    54    9.5   208    18.6   501.7    0.00 
  61   12:00   0.08   52.4    66   13.4   224    19.1   501.6    0.02 
  61   12:10   0.12   50.9    72   10.3   218    15.1   501.6    0.02 
  61   12:20   0.38   51.0    74    5.6   230    12.0   501.6    0.00 
  61   12:30   0.79   54.0    66    2.5   340     6.6   501.6    0.00 
  61   12:40   0.81   55.1    62    6.0   334    10.2   501.6    0.00 
  61   12:50   0.62   55.2    56    3.1    28     6.9   501.6    0.00 
  61   13:00   0.86   55.8    60    8.9    60    13.4   501.7    0.00 
  61   13:10   0.66   56.3    59    7.9    42    11.0   501.7    0.00 
  61   13:20   0.78   56.8    58    8.9    38    12.6   501.7    0.00 
  61   13:30   0.58   56.7    56    8.7    23    12.5   501.8    0.00 
  61   13:40   0.52   56.8    55    4.7   353     7.3   501.8    0.00 
  61   13:50   0.20   55.0    59   11.2   294    18.3   501.8    0.01 
  61   14:00   0.42   53.5    65    8.4   291    13.4   501.7    0.01 
  61   14:10   0.34   53.3    68    8.8   309    13.0   501.6    0.00 
  61   14:20   0.46   53.9    66    6.1   258    12.2   501.6    0.01 
  61   14:30   0.15   53.9    64   15.0   248    29.0   501.6    0.01 
  61   14:40   0.23   51.5    70   14.5   256    25.0   501.6    0.03 
  61   14:50   0.28   51.9    68   11.1   276    25.9   501.6    0.00 
  61   15:00   0.21   53.5    64    7.4   309    14.1   501.6    0.01 
  61   15:10   0.27   53.5    65    4.6    55    11.4   501.6    0.01 
  61   15:20   0.50   55.0    59    3.3    64     7.3   501.6    0.00 
  61   15:30   0.27   56.3    58    6.0   305    13.2   501.6    0.00 
  61   15:40   0.41   55.7    56    5.0   292     8.2   501.6    0.00 
  61   15:50   0.39   58.0    52    4.6   307    14.0   501.6    0.00 
  61   16:00   0.35   56.4    53    7.7   336    11.2   501.7    0.00 
  61   16:10   0.33   56.6    51    4.7   355     7.5   501.7    0.00 
  61   16:20   0.28   57.9    49    3.3    44     5.7   501.7    0.00 
  61   16:30   0.24   57.5    50    6.6    50    12.9   501.7    0.00 
  61   16:40   0.12   56.2    52    7.6    56    13.6   501.7    0.00 
  61   16:50   0.07   54.9    55    4.6   337     7.5   501.7    0.00 
  61   17:00   0.05   54.3    54    2.7   310     6.1   501.6    0.00 
  61   17:10   0.04   54.4    55    3.7   314     7.7   501.6    0.00 
  61   17:20   0.03   53.9    55    4.9   307     8.0   501.6    0.00 
  61   17:30   0.01   53.7    56    2.6   300     7.6   501.6    0.00 
  61   17:40   0.00   53.3    56    0.7   223     1.9   501.6    0.00 
  61   17:50   0.00   53.2    56    1.4    58     3.4   501.6    0.00 
  61   18:00   0.00   52.8    58    2.8   344     6.1   501.6    0.00 
  61   18:10   0.00   51.4    71    3.1   238     4.9   501.6    0.00 
  61   18:20   0.00   49.9    77    6.7   258    10.2   501.6    0.00 
  61   18:30   0.00   50.8    70    6.7   231     8.8   501.6    0.00 
  61   18:40   0.00   50.3    73    6.0   240     7.6   501.6    0.00 
  61   18:50   0.00   50.3    71    4.3   241     6.0   501.6    0.00 
  61   19:00   0.00   51.0    66    4.5   245     7.4   501.6    0.00 
  61   19:10   0.00   51.1    64    6.3   239     8.4   501.6    0.00 
  61   19:20   0.00   51.6    61    8.9   236    12.3   501.6    0.00 
  61   19:30   0.00   51.8    61    9.2   234    14.0   501.6    0.00 
  61   19:40   0.00   51.8    60    5.5   277    11.7   501.6    0.00 
  61   19:50   0.00   53.1    52    8.4   304    12.8   501.6    0.00 
  61   20:00   0.00   53.5    50    5.6   305    11.1   501.6    0.00 
  61   20:10   0.00   53.3    52    3.2   277     6.1   501.6    0.00 
  61   20:20   0.00   52.4    55    2.0   102     5.7   501.6    0.00 
  61   20:30   0.00   52.0    57    2.7    60     6.7   501.6    0.00 
  61   20:40   0.00   51.1    62    4.2    88     6.3   501.6    0.00 
  61   20:50   0.00   50.8    63    5.2   144     7.2   501.6    0.00 
  61   21:00   0.00   49.3    68    6.1   241     8.4   501.6    0.00 
  61   21:10   0.00   48.5    70    5.1   230     8.1   501.6    0.00 
  61   21:20   0.00   47.9    73    5.7   256     8.6   501.6    0.00 
  61   21:30   0.00   48.1    73    5.2   278     7.2   501.6    0.00 
  61   21:40   0.00   48.7    69    4.2   275     8.5   501.6    0.00 
  61   21:50   0.00   50.3    60    7.0   222    11.5   501.6    0.00 
  61   22:00   0.00   51.9    54    4.8   232     8.7   501.6    0.00 
  61   22:10   0.00   51.5    55    2.2   319     5.3   501.6    0.00 
  61   22:20   0.00   49.6    62    1.1    44     5.1   501.6    0.00 
  61   22:30   0.00   48.7    64    3.8   216     6.1   501.6    0.00 
  61   22:40   0.00   48.8    63    5.2   244     7.4   501.6    0.00 
  61   22:50   0.00   49.2    62    6.2   279     8.9   501.6    0.00 
  61   23:00   0.00   50.9    56    6.0   323    10.3   501.6    0.00 
  61   23:10   0.00   49.5    64    3.9    15     5.8   501.6    0.00 
  61   23:20   0.00   47.1    71    5.5   151    10.2   501.6    0.00 
  61   23:30   0.00   48.9    63    2.8   104     5.1   501.6    0.00 
  61   23:40   0.00   49.4    61    1.3    83     2.7   501.6    0.00 
  61   23:50   0.00   47.2    69    4.0   218     6.1   501.6    0.00 
  62    0:00   0.00   45.5    74    3.6   187     5.8   501.6    0.00 
  62    0:10   0.00   46.0    73    5.1   225     6.8   501.6    0.00 
  62    0:20   0.00   45.8    74    6.2   248     7.1   501.6    0.00 
  62    0:30   0.00   45.6    74    3.9   233     6.2   501.6    0.00 
  62    0:40   0.00   44.9    76    4.4   250     6.8   501.6    0.00 
  62    0:50   0.00   44.4    77    1.9   129     3.6   501.6    0.00 
  62    1:00   0.00   45.6    71    2.0   135     3.7   501.6    0.00 
  62    1:10   0.00   45.5    73    5.7   225     8.6   501.6    0.00 
  62    1:20   0.00   46.6    70    6.9   221     9.3   501.6    0.00 
  62    1:30   0.00   45.5    73    6.8   237     9.2   501.6    0.00 
  62    1:40   0.00   45.5    72    6.7   231     8.2   501.6    0.00 
  62    1:50   0.00   45.2    74    5.4   222     8.0   501.6    0.00 
  62    2:00   0.00   45.9    71    4.9   204     7.4   501.6    0.00 
  62    2:10   0.00   46.1    70    5.2   213     7.0   501.6    0.00 
  62    2:20   0.00   46.9    66    3.3   219     5.9   501.6    0.00 
  62    2:30   0.00   46.8    66    2.6   173     3.9   501.6    0.00 
  62    2:40   0.00   46.0    69    4.7   179     6.1   501.6    0.00 
  62    2:50   0.00   45.4    71    4.5   206     6.2   501.6    0.00 
  62    3:00   0.00   44.6    72    3.1   213     5.0   501.6    0.00 
  62    3:10   0.00   43.6    75    4.2   247     5.7   501.6    0.00 
  62    3:20   0.00   42.5    79    3.4   255     6.3   501.6    0.00 
  62    3:30   0.00   43.3    78    3.1   294     5.8   501.6    0.00 
  62    3:40   0.00   42.8    80    2.5   278     4.2   501.6    0.00 
  62    3:50   0.00   43.3    77    1.7   264     3.2   501.6    0.00 
  62    4:00   0.00   42.6    78    2.7   216     3.9   501.6    0.00 
  62    4:10   0.00   43.1    75    2.8   227     4.4   501.6    0.00 
  62    4:20   0.00   43.3    75    4.6   243     6.1   501.6    0.00 
  62    4:30   0.00   43.8    73    4.8   210     6.8   501.6    0.00 
  62    4:40   0.00   44.2    71    3.3   223     5.3   501.6    0.00 
  62    4:50   0.00   44.6    68    3.8   215     5.3   501.6    0.00 
  62    5:00   0.00   43.7    72    4.4   234     6.1   501.6    0.00 
  62    5:10   0.00   45.3    67    4.2   240     5.7   501.6    0.00 
  62    5:20   0.00   45.3    67    3.3   225     5.2   501.6    0.00 
  62    5:30   0.00   45.1    69    1.0   142     3.1   501.6    0.00 
  62    5:40   0.00   43.9    74    2.4   200     3.9   501.6    0.00 
  62    5:50   0.00   43.2    76    3.5   254     4.6   501.6    0.00 
  62    6:00   0.00   42.7    79    4.3   355     6.2   501.6    0.00 
  62    6:10   0.00   43.0    78    2.3   348     3.7   501.6    0.00 
  62    6:20   0.00   41.4    82    2.3   233     3.6   501.6    0.00 
  62    6:30   0.01   42.0    82    5.5   225     8.2   501.6    0.00 
  62    6:40   0.04   43.7    78    8.1   238     9.0   501.6    0.00 
  62    6:50   0.07   45.7    73    7.3   239     8.6   501.6    0.00 
  62    7:00   0.09   48.2    68    3.0   229     5.2   501.6    0.00 
  62    7:10   0.13   51.4    61    1.3   196     2.8   501.6    0.00 
  62    7:20   0.16   54.9    55    0.8   286     2.7   501.6    0.00 
  62    7:30   0.19   53.8    57    2.5   354     4.3   501.6    0.00 
  62    7:40   0.23   51.8    64    2.3    94     3.9   501.6    0.00 
  62    7:50   0.27   52.8    62    1.6   196     3.5   501.6    0.00 
  62    8:00   0.30   54.2    58    2.7   208     4.1   501.6    0.00 
  62    8:10   0.34   55.8    54    3.0   193     4.5   501.6    0.00 
  62    8:20   0.37   57.0    47    1.9   186     3.4   501.6    0.00 
  62    8:30   0.41   57.8    48    2.7   166     4.9   501.6    0.00 
  62    8:40   0.44   57.9    45    1.8   148     3.9   501.6    0.00 
  62    8:50   0.47   59.3    42    1.3    90     3.4   501.6    0.00 
  62    9:00   0.51   58.3    44    2.6   120     5.0   501.6    0.00 
  62    9:10   0.54   58.2    43    2.0   111     3.9   501.7    0.00 
  62    9:20   0.56   59.0    40    0.7   236     2.1   501.7    0.00 
  62    9:30   0.59   59.6    39    1.1   277     2.9   501.7    0.00 
  62    9:40   0.62   59.4    40    2.2   113     4.3   501.7    0.00 
  62    9:50   0.65   60.2    39    1.4   146     3.7   501.8    0.00 
  62   10:00   0.67   61.1    39    2.0    84     4.0   501.8    0.00 
  62   10:10   0.69   60.4    41    3.2    97     6.6   501.8    0.00 
  62   10:20   0.71   59.3    42    2.5    71     4.7   501.8    0.00 
  62   10:30   0.73   60.3    41    3.3   107     6.6   501.8    0.00 

Return to Anza Borrego Desert Research Center graphs page.


Western Regional Climate Center,wrcc@dri.edu